Aviation Digital Data Service (ADDS)

Output produced by TAFs form (0834 UTC 24 September 2017)
found at http://aviationweather.gov/adds/tafs/
 
KHOB 240725Z 2407/2506 16015KT P6SM SCT005 BKN015 
     TEMPO 2407/2410 VRB20G30KT 5SM SHRA BKN005 
     FM241000 15012KT P6SM OVC020 
     FM241800 15011G21KT P6SM SCT040 BKN250